Algoa, TX

7:07 AM CST on December 18, 2014 (GMT -0600)
Houston-Southwest | Change Station
CLOSE
Current Station
Airport
Location: Houston / Southwest Airport,
Elevation: 69 ft
Nearby Weather Stations

Elev 69 ft 29.50 °N, 95.48 °W | Updated 12 minutes ago

Overcast
Overcast
54 °F
Feels Like 54 °F
N
0
Wind Variable Wind from North

Today
High -- | Low -- °F
--% Chance of Precip.
Yesterday
High -- | Low -- °F
Precip. -- in
7:09 AM 5:25 PM
Waning Crescent, 14% visible
Pressure 30.07 in
Visibility 3.0 miles
Clouds Scattered Clouds 1300 ft
Mostly Cloudy 3500 ft
Overcast 4100 ft
Dew Point 54 °F
Humidity 100%
Rainfall 0.41 in
Snow Depth Not available.
UV 0 out of 12
Pollen 5.70 out of 12
Air Quality Not available.
Flu Activity Not available.
METAR KAXH 181255Z AUTO 00000KT 3SM BR SCT013 BKN035 OVC041 12/12 A3007 RMK AO2 P0007 T01200120

More Conditions Fewer Conditions

Pressure 30.07 in
Visibility 3.0 miles
Clouds Scattered Clouds 1300 ft
Mostly Cloudy 3500 ft
Overcast 4100 ft
Dew Point 54 °F
Humidity 100%
Rainfall 0.41 in
Snow Depth Not available.
UV 0 out of 12
Pollen 5.70 out of 12
Air Quality Not available.
Flu Activity Not available.
METAR KAXH 181255Z AUTO 00000KT 3SM BR SCT013 BKN035 OVC041 12/12 A3007 RMK AO2 P0007 T01200120

More Conditions Fewer Conditions

10-Day Weather Forecast

Almanac

Astronomy

Dec. 18, 2014 Rise Set
Actual Time
Civil Twilight
Nautical Twilight
Astronomical Twilight
Moon
Length of Visible Light
Length of Day
Tomorrow will be .
, % of the Moon is Illuminated

Today's Extremes

State Highs State Lows

Community

WunderPhotos

Upload Photos

1,778,926 photos uploaded!

WunderBlogs® & News

Nearby

Air Quality

  Air Quality AQ Index Pollutant
Not available.

Snow Depth

Station Depth Elevation

Earthquake Activity

City Distance Mag. Time & Date
Minimum magnitude displayed is 2.5.

Coastal Water Temperatures

Place Temperature

Nearby Weather Stations